Contact Us:
Email: info@sawbill.com
Phone: (218)663-7150
Fax: (218)663-7980
Mail: 4620 Sawbill Trail
Box 2129
Tofte, MN 55615


Powered by
Movable Type 3.15
 
Sawbill Weather History Archives: June 2005
Current Sawbill Weather History | « May 2005 | July 2005 »


Date

High
Temperature

Low
Temperature

Barometric
Pressure

Relative
Humidity 7AM

9 AM
Temperature

Moisture

Snow

6/30/05 62 49 29.85 74% 50 .22"
6/29/05 65 55 29.56 91% 59 1.25"
6/28/05 90 54 30.10 79% 55 0"
6/27/05 90 62 30.00 81% 62 0
6/26/05 80 57 29.89 86% 69 0
6/25/05 84 53 30.11 71% 57 0
6/24/05 85 52 30.11 80% 57 0
6/23/05 92 67 29.84 69% 70 0
6/22/05 84 54 29.88 83% 67 0
6/21/05 84 51 30.21 84% 54 0
6/20/05 85 58 30.16 71% 61 0
6/19/05 88 54 30.12 96% 68 .46"
6/18/05 78 48 30.09 84% 54 0
6/17/05 82 45 30.10 79% 51 0
6/16/05 73 48 30.06 48% 54 0
6/15/05 78 49 29.99 86% 53 0
6/14/05 62 52 29.92 85% 53 .30"
6/13/05 76 54 29.64 89% 59 .38"
6/12/05 72 51 29.85 87% 54 .07"
6/10/05 68 54 29.88 88% 55 .64"
6/9/05 79 51 29.97 86% 56 0
6/8/05 58 47 29.85 90% 51 0"
6/7/05 60 48 29.87 87% 48 .4"
6/6/05 63 52 29.87 80% 54 0
6/5/05 74 55 29.64 87% 55 .25"
6/4/05 74 58 29.64 91% 60 .54"
6/3/05 81 53 29.86 74% 60 0
6/2/05 82 51 29.93 77% 53 0
6/1/05 78 53 30.04 73% 54 0
 


Home I Trip Planning I Rentals and Outfitting I Reservations I Campgrounds I Sawbill Store I Sawbill News I Contact

© 1997 - 2017, Sawbill Canoe Outfitters, Inc. I Privacy Policy